sensor_id;sensor_type;location;lat;lon;timestamp;pressure;altitude;pressure_sealevel;temperature;humidity
52855;BME280;38719;51.418;7.286;2023-03-20T00:00:47;100104.38;;;10.95;74.30
52855;BME280;38719;51.418;7.286;2023-03-20T00:03:17;100102.66;;;10.94;73.82
52855;BME280;38719;51.418;7.286;2023-03-20T00:05:45;100104.38;;;10.95;72.13
52855;BME280;38719;51.418;7.286;2023-03-20T00:08:12;100105.56;;;11.09;72.28
52855;BME280;38719;51.418;7.286;2023-03-20T00:10:43;100114.97;;;10.97;72.06
52855;BME280;38719;51.418;7.286;2023-03-20T00:13:13;100105.41;;;11.12;71.91
52855;BME280;38719;51.418;7.286;2023-03-20T00:15:43;100116.06;;;11.12;72.00
52855;BME280;38719;51.418;7.286;2023-03-20T00:18:14;100121.09;;;10.99;72.64
52855;BME280;38719;51.418;7.286;2023-03-20T00:20:45;100125.38;;;11.22;71.77
52855;BME280;38719;51.418;7.286;2023-03-20T00:23:13;100122.03;;;11.19;71.66
52855;BME280;38719;51.418;7.286;2023-03-20T00:25:42;100126.63;;;11.15;71.18
52855;BME280;38719;51.418;7.286;2023-03-20T00:28:28;100124.06;;;10.91;71.74
52855;BME280;38719;51.418;7.286;2023-03-20T00:30:57;100119.72;;;10.90;71.69
52855;BME280;38719;51.418;7.286;2023-03-20T00:33:25;100122.69;;;11.03;71.03
52855;BME280;38719;51.418;7.286;2023-03-20T00:35:54;100123.25;;;11.10;71.41
52855;BME280;38719;51.418;7.286;2023-03-20T00:38:24;100123.50;;;10.85;71.59
52855;BME280;38719;51.418;7.286;2023-03-20T00:40:51;100132.22;;;11.09;70.81
52855;BME280;38719;51.418;7.286;2023-03-20T00:43:19;100131.56;;;10.83;70.91
52855;BME280;38719;51.418;7.286;2023-03-20T00:45:46;100134.63;;;10.94;71.02
52855;BME280;38719;51.418;7.286;2023-03-20T00:48:14;100127.28;;;11.00;70.78
52855;BME280;38719;51.418;7.286;2023-03-20T00:50:43;100125.88;;;10.70;70.45
52855;BME280;38719;51.418;7.286;2023-03-20T00:53:12;100129.03;;;10.59;71.46
52855;BME280;38719;51.418;7.286;2023-03-20T00:55:39;100129.81;;;10.61;71.84
52855;BME280;38719;51.418;7.286;2023-03-20T00:58:08;100129.13;;;10.56;71.17
52855;BME280;38719;51.418;7.286;2023-03-20T01:00:39;100125.28;;;10.63;71.42
52855;BME280;38719;51.418;7.286;2023-03-20T01:03:13;100123.50;;;10.20;72.50
52855;BME280;38719;51.418;7.286;2023-03-20T01:05:42;100121.28;;;10.53;71.89
52855;BME280;38719;51.418;7.286;2023-03-20T01:08:16;100108.38;;;10.64;71.47
52855;BME280;38719;51.418;7.286;2023-03-20T01:10:45;100115.44;;;10.66;71.17
52855;BME280;38719;51.418;7.286;2023-03-20T01:13:19;100109.81;;;10.51;72.49
52855;BME280;38719;51.418;7.286;2023-03-20T01:15:49;100107.13;;;10.73;71.96
52855;BME280;38719;51.418;7.286;2023-03-20T01:18:18;100109.03;;;10.70;72.18
52855;BME280;38719;51.418;7.286;2023-03-20T01:20:47;100111.16;;;10.41;73.49
52855;BME280;38719;51.418;7.286;2023-03-20T01:23:16;100118.00;;;10.24;74.02
52855;BME280;38719;51.418;7.286;2023-03-20T01:25:44;100119.47;;;10.31;73.60
52855;BME280;38719;51.418;7.286;2023-03-20T01:28:14;100122.47;;;10.24;73.20
52855;BME280;38719;51.418;7.286;2023-03-20T01:30:44;100122.06;;;10.33;73.20
52855;BME280;38719;51.418;7.286;2023-03-20T01:33:14;100123.69;;;10.59;71.84
52855;BME280;38719;51.418;7.286;2023-03-20T01:35:42;100126.09;;;10.66;71.44
52855;BME280;38719;51.418;7.286;2023-03-20T01:38:12;100123.31;;;10.46;71.95
52855;BME280;38719;51.418;7.286;2023-03-20T01:40:48;100113.66;;;10.22;71.92
52855;BME280;38719;51.418;7.286;2023-03-20T01:43:19;100113.31;;;10.31;71.58
52855;BME280;38719;51.418;7.286;2023-03-20T01:45:55;100115.81;;;10.34;71.88
52855;BME280;38719;51.418;7.286;2023-03-20T01:48:30;100134.22;;;10.18;72.62
52855;BME280;38719;51.418;7.286;2023-03-20T01:51:02;100128.72;;;10.23;71.73
52855;BME280;38719;51.418;7.286;2023-03-20T01:53:29;100132.38;;;10.20;70.97
52855;BME280;38719;51.418;7.286;2023-03-20T01:55:59;100138.50;;;10.44;70.54
52855;BME280;38719;51.418;7.286;2023-03-20T01:58:30;100143.44;;;10.31;70.15
52855;BME280;38719;51.418;7.286;2023-03-20T02:00:59;100135.34;;;10.35;70.13
52855;BME280;38719;51.418;7.286;2023-03-20T02:03:26;100135.84;;;10.22;70.63
52855;BME280;38719;51.418;7.286;2023-03-20T02:05:54;100119.06;;;10.20;70.03
52855;BME280;38719;51.418;7.286;2023-03-20T02:08:26;100112.25;;;10.13;70.47
52855;BME280;38719;51.418;7.286;2023-03-20T02:10:54;100112.56;;;10.27;69.44
52855;BME280;38719;51.418;7.286;2023-03-20T02:13:25;100120.31;;;10.32;69.26
52855;BME280;38719;51.418;7.286;2023-03-20T02:16:00;100117.66;;;10.32;69.11
52855;BME280;38719;51.418;7.286;2023-03-20T02:18:28;100122.16;;;10.09;69.59
52855;BME280;38719;51.418;7.286;2023-03-20T02:21:14;100120.78;;;9.99;70.67
52855;BME280;38719;51.418;7.286;2023-03-20T02:24:13;100122.00;;;9.68;70.96
52855;BME280;38719;51.418;7.286;2023-03-20T02:26:56;100129.31;;;9.61;72.02
52855;BME280;38719;51.418;7.286;2023-03-20T02:32:46;100143.81;;;9.54;72.39
52855;BME280;38719;51.418;7.286;2023-03-20T02:38:31;100145.66;;;9.52;73.00
52855;BME280;38719;51.418;7.286;2023-03-20T02:41:08;100131.72;;;9.69;71.91
52855;BME280;38719;51.418;7.286;2023-03-20T02:43:42;100126.41;;;9.69;71.86
52855;BME280;38719;51.418;7.286;2023-03-20T02:46:18;100117.94;;;9.58;72.26
52855;BME280;38719;51.418;7.286;2023-03-20T02:48:55;100122.63;;;9.51;71.65
52855;BME280;38719;51.418;7.286;2023-03-20T02:51:31;100128.47;;;9.37;72.38
52855;BME280;38719;51.418;7.286;2023-03-20T02:54:06;100133.28;;;9.51;71.83
52855;BME280;38719;51.418;7.286;2023-03-20T02:56:45;100142.41;;;9.44;72.22
52855;BME280;38719;51.418;7.286;2023-03-20T02:59:22;100153.38;;;9.34;71.30
52855;BME280;38719;51.418;7.286;2023-03-20T03:01:56;100143.47;;;9.86;71.00
52855;BME280;38719;51.418;7.286;2023-03-20T03:04:29;100153.22;;;9.63;70.77
52855;BME280;38719;51.418;7.286;2023-03-20T03:07:02;100155.44;;;9.74;70.87
52855;BME280;38719;51.418;7.286;2023-03-20T03:09:34;100153.97;;;9.66;70.80
52855;BME280;38719;51.418;7.286;2023-03-20T03:12:08;100159.75;;;9.78;70.14
52855;BME280;38719;51.418;7.286;2023-03-20T03:14:40;100144.97;;;9.93;69.75
52855;BME280;38719;51.418;7.286;2023-03-20T03:17:10;100146.22;;;9.84;70.39
52855;BME280;38719;51.418;7.286;2023-03-20T03:19:41;100155.53;;;9.48;70.97
52855;BME280;38719;51.418;7.286;2023-03-20T03:22:10;100151.81;;;9.52;71.06
52855;BME280;38719;51.418;7.286;2023-03-20T03:24:43;100156.50;;;9.46;70.97
52855;BME280;38719;51.418;7.286;2023-03-20T03:27:16;100159.56;;;9.35;71.61
52855;BME280;38719;51.418;7.286;2023-03-20T03:29:48;100156.66;;;9.65;70.78
52855;BME280;38719;51.418;7.286;2023-03-20T03:32:27;100144.88;;;9.72;70.76
52855;BME280;38719;51.418;7.286;2023-03-20T03:34:56;100133.66;;;9.40;72.11
52855;BME280;38719;51.418;7.286;2023-03-20T03:37:32;100139.97;;;9.61;71.45
52855;BME280;38719;51.418;7.286;2023-03-20T03:40:13;100120.13;;;9.70;70.24
52855;BME280;38719;51.418;7.286;2023-03-20T03:42:49;100114.22;;;9.86;69.60
52855;BME280;38719;51.418;7.286;2023-03-20T03:45:25;100124.72;;;9.43;70.83
52855;BME280;38719;51.418;7.286;2023-03-20T03:47:58;100110.25;;;9.50;70.27
52855;BME280;38719;51.418;7.286;2023-03-20T03:50:31;100089.53;;;9.82;68.81
52855;BME280;38719;51.418;7.286;2023-03-20T03:53:05;100084.72;;;9.46;71.15
52855;BME280;38719;51.418;7.286;2023-03-20T03:55:38;100082.47;;;9.59;69.93
52855;BME280;38719;51.418;7.286;2023-03-20T03:58:10;100084.28;;;9.80;69.13
52855;BME280;38719;51.418;7.286;2023-03-20T04:00:39;100082.56;;;9.79;69.57
52855;BME280;38719;51.418;7.286;2023-03-20T04:03:09;100086.53;;;9.67;69.16
52855;BME280;38719;51.418;7.286;2023-03-20T04:05:40;100094.00;;;9.35;70.71
52855;BME280;38719;51.418;7.286;2023-03-20T04:08:09;100103.22;;;9.49;69.63
52855;BME280;38719;51.418;7.286;2023-03-20T04:10:38;100121.34;;;9.14;70.94
52855;BME280;38719;51.418;7.286;2023-03-20T04:13:05;100125.41;;;8.74;73.16
52855;BME280;38719;51.418;7.286;2023-03-20T04:15:33;100124.25;;;9.31;70.12
52855;BME280;38719;51.418;7.286;2023-03-20T04:18:00;100144.00;;;9.24;71.04
52855;BME280;38719;51.418;7.286;2023-03-20T04:20:28;100132.91;;;9.36;70.63
52855;BME280;38719;51.418;7.286;2023-03-20T04:22:55;100142.97;;;9.28;70.17
52855;BME280;38719;51.418;7.286;2023-03-20T04:25:24;100139.09;;;9.13;71.04
52855;BME280;38719;51.418;7.286;2023-03-20T04:27:54;100139.41;;;9.29;71.33
52855;BME280;38719;51.418;7.286;2023-03-20T04:30:21;100131.81;;;9.18;71.37
52855;BME280;38719;51.418;7.286;2023-03-20T04:32:49;100128.72;;;9.55;69.54
52855;BME280;38719;51.418;7.286;2023-03-20T04:35:16;100128.19;;;9.45;70.16
52855;BME280;38719;51.418;7.286;2023-03-20T04:37:44;100113.84;;;9.73;69.03
52855;BME280;38719;51.418;7.286;2023-03-20T04:40:15;100107.75;;;9.93;67.95
52855;BME280;38719;51.418;7.286;2023-03-20T04:42:42;100099.75;;;9.93;67.46
52855;BME280;38719;51.418;7.286;2023-03-20T04:45:11;100098.25;;;9.63;68.36
52855;BME280;38719;51.418;7.286;2023-03-20T04:47:39;100098.72;;;9.51;70.02
52855;BME280;38719;51.418;7.286;2023-03-20T04:50:07;100095.44;;;9.44;69.43
52855;BME280;38719;51.418;7.286;2023-03-20T04:52:35;100096.44;;;9.64;69.19
52855;BME280;38719;51.418;7.286;2023-03-20T04:55:02;100090.25;;;9.63;68.45
52855;BME280;38719;51.418;7.286;2023-03-20T04:57:30;100087.50;;;9.66;69.36
52855;BME280;38719;51.418;7.286;2023-03-20T04:59:58;100080.38;;;9.67;68.94
52855;BME280;38719;51.418;7.286;2023-03-20T05:02:27;100083.84;;;9.69;68.11
52855;BME280;38719;51.418;7.286;2023-03-20T05:04:54;100077.84;;;9.40;69.22
52855;BME280;38719;51.418;7.286;2023-03-20T05:07:22;100082.69;;;9.52;67.89
52855;BME280;38719;51.418;7.286;2023-03-20T05:09:49;100073.63;;;9.58;68.27
52855;BME280;38719;51.418;7.286;2023-03-20T05:12:17;100073.16;;;9.71;68.17
52855;BME280;38719;51.418;7.286;2023-03-20T05:14:44;100060.44;;;9.55;68.32
52855;BME280;38719;51.418;7.286;2023-03-20T05:17:12;100061.28;;;9.33;68.80
52855;BME280;38719;51.418;7.286;2023-03-20T05:19:41;100070.31;;;9.29;68.97
52855;BME280;38719;51.418;7.286;2023-03-20T05:22:09;100076.72;;;9.24;69.89
52855;BME280;38719;51.418;7.286;2023-03-20T05:24:37;100076.63;;;9.49;68.57
52855;BME280;38719;51.418;7.286;2023-03-20T05:27:04;100076.56;;;9.27;69.11
52855;BME280;38719;51.418;7.286;2023-03-20T05:29:32;100083.00;;;9.45;68.94
52855;BME280;38719;51.418;7.286;2023-03-20T05:31:59;100082.88;;;9.24;69.99
52855;BME280;38719;51.418;7.286;2023-03-20T05:34:27;100085.66;;;9.21;69.57
52855;BME280;38719;51.418;7.286;2023-03-20T05:36:56;100099.19;;;8.90;71.03
52855;BME280;38719;51.418;7.286;2023-03-20T05:39:23;100104.72;;;9.09;70.30
52855;BME280;38719;51.418;7.286;2023-03-20T05:41:51;100114.75;;;9.00;70.49
52855;BME280;38719;51.418;7.286;2023-03-20T05:44:18;100106.81;;;8.74;71.34
52855;BME280;38719;51.418;7.286;2023-03-20T05:46:46;100119.00;;;9.04;71.35
52855;BME280;38719;51.418;7.286;2023-03-20T05:49:13;100113.00;;;9.25;69.44
52855;BME280;38719;51.418;7.286;2023-03-20T05:51:41;100103.28;;;9.24;70.01
52855;BME280;38719;51.418;7.286;2023-03-20T05:54:10;100105.03;;;9.25;69.73
52855;BME280;38719;51.418;7.286;2023-03-20T05:56:37;100116.13;;;9.11;70.37
52855;BME280;38719;51.418;7.286;2023-03-20T05:59:05;100103.81;;;9.33;69.55
52855;BME280;38719;51.418;7.286;2023-03-20T06:01:32;100103.69;;;9.36;69.68
52855;BME280;38719;51.418;7.286;2023-03-20T06:04:00;100112.94;;;9.26;69.99
52855;BME280;38719;51.418;7.286;2023-03-20T06:06:27;100117.16;;;9.32;69.54
52855;BME280;38719;51.418;7.286;2023-03-20T06:08:55;100113.78;;;9.27;70.23
52855;BME280;38719;51.418;7.286;2023-03-20T06:11:24;100111.78;;;9.33;69.30
52855;BME280;38719;51.418;7.286;2023-03-20T06:13:51;100111.31;;;8.97;70.98
52855;BME280;38719;51.418;7.286;2023-03-20T06:16:19;100107.94;;;9.17;70.07
52855;BME280;38719;51.418;7.286;2023-03-20T06:18:47;100105.78;;;9.28;70.04
52855;BME280;38719;51.418;7.286;2023-03-20T06:21:15;100110.19;;;9.28;69.53
52855;BME280;38719;51.418;7.286;2023-03-20T06:23:42;100105.53;;;9.34;69.38
52855;BME280;38719;51.418;7.286;2023-03-20T06:26:10;100108.31;;;9.31;69.25
52855;BME280;38719;51.418;7.286;2023-03-20T06:28:39;100115.03;;;9.42;69.28
52855;BME280;38719;51.418;7.286;2023-03-20T06:31:06;100122.19;;;9.40;68.81
52855;BME280;38719;51.418;7.286;2023-03-20T06:33:35;100134.41;;;9.20;69.73
52855;BME280;38719;51.418;7.286;2023-03-20T06:36:03;100133.19;;;9.29;69.47
52855;BME280;38719;51.418;7.286;2023-03-20T06:38:31;100137.91;;;9.20;70.00
52855;BME280;38719;51.418;7.286;2023-03-20T06:40:59;100130.84;;;9.21;69.85
52855;BME280;38719;51.418;7.286;2023-03-20T06:43:26;100131.00;;;9.16;69.39
52855;BME280;38719;51.418;7.286;2023-03-20T06:45:55;100128.66;;;9.32;69.09
52855;BME280;38719;51.418;7.286;2023-03-20T06:48:23;100122.50;;;9.30;68.61
52855;BME280;38719;51.418;7.286;2023-03-20T06:50:50;100134.94;;;9.30;69.24
52855;BME280;38719;51.418;7.286;2023-03-20T06:53:18;100149.22;;;9.02;69.30
52855;BME280;38719;51.418;7.286;2023-03-20T06:55:49;100148.31;;;9.27;69.03
52855;BME280;38719;51.418;7.286;2023-03-20T06:58:17;100150.44;;;9.42;68.61
52855;BME280;38719;51.418;7.286;2023-03-20T07:00:44;100154.06;;;9.16;68.98
52855;BME280;38719;51.418;7.286;2023-03-20T07:03:14;100151.88;;;9.27;68.39
52855;BME280;38719;51.418;7.286;2023-03-20T07:05:41;100156.94;;;9.10;69.80
52855;BME280;38719;51.418;7.286;2023-03-20T07:08:10;100155.13;;;9.35;68.91
52855;BME280;38719;51.418;7.286;2023-03-20T07:10:37;100149.44;;;9.21;68.12
52855;BME280;38719;51.418;7.286;2023-03-20T07:13:05;100154.22;;;9.11;70.04
52855;BME280;38719;51.418;7.286;2023-03-20T07:15:32;100152.69;;;9.29;68.69
52855;BME280;38719;51.418;7.286;2023-03-20T07:18:00;100152.78;;;9.26;69.68
52855;BME280;38719;51.418;7.286;2023-03-20T07:20:29;100153.56;;;9.54;67.92
52855;BME280;38719;51.418;7.286;2023-03-20T07:22:56;100154.22;;;9.60;68.04
52855;BME280;38719;51.418;7.286;2023-03-20T07:25:24;100151.59;;;9.59;67.80
52855;BME280;38719;51.418;7.286;2023-03-20T07:28:07;100154.97;;;9.86;66.18
52855;BME280;38719;51.418;7.286;2023-03-20T07:30:35;100154.47;;;9.76;66.22
52855;BME280;38719;51.418;7.286;2023-03-20T07:33:02;100162.97;;;9.62;67.09
52855;BME280;38719;51.418;7.286;2023-03-20T07:35:31;100155.50;;;9.72;66.31
52855;BME280;38719;51.418;7.286;2023-03-20T07:37:59;100154.94;;;9.88;64.61
52855;BME280;38719;51.418;7.286;2023-03-20T07:40:27;100164.69;;;9.87;65.31
52855;BME280;38719;51.418;7.286;2023-03-20T07:42:54;100168.63;;;10.00;65.17
52855;BME280;38719;51.418;7.286;2023-03-20T07:45:22;100170.59;;;9.95;64.92
52855;BME280;38719;51.418;7.286;2023-03-20T07:47:50;100167.72;;;10.24;63.62
52855;BME280;38719;51.418;7.286;2023-03-20T07:50:17;100171.44;;;9.96;65.48
52855;BME280;38719;51.418;7.286;2023-03-20T07:52:47;100162.78;;;10.37;64.32
52855;BME280;38719;51.418;7.286;2023-03-20T07:55:15;100173.25;;;10.41;64.51
52855;BME280;38719;51.418;7.286;2023-03-20T07:57:44;100180.16;;;10.45;63.73
52855;BME280;38719;51.418;7.286;2023-03-20T08:00:12;100180.78;;;10.52;63.07
52855;BME280;38719;51.418;7.286;2023-03-20T08:02:40;100184.72;;;10.64;62.59
52855;BME280;38719;51.418;7.286;2023-03-20T08:05:08;100176.56;;;10.69;62.76
52855;BME280;38719;51.418;7.286;2023-03-20T08:07:36;100171.91;;;10.94;61.84
52855;BME280;38719;51.418;7.286;2023-03-20T08:10:06;100178.69;;;10.81;62.00
52855;BME280;38719;51.418;7.286;2023-03-20T08:12:33;100171.38;;;10.86;61.15
52855;BME280;38719;51.418;7.286;2023-03-20T08:15:01;100187.44;;;10.85;61.44
52855;BME280;38719;51.418;7.286;2023-03-20T08:17:28;100192.66;;;10.88;61.66
52855;BME280;38719;51.418;7.286;2023-03-20T08:19:56;100189.44;;;10.35;62.41
52855;BME280;38719;51.418;7.286;2023-03-20T08:22:24;100186.88;;;10.56;62.07
52855;BME280;38719;51.418;7.286;2023-03-20T08:24:54;100199.19;;;10.79;60.86
52855;BME280;38719;51.418;7.286;2023-03-20T08:27:23;100190.16;;;10.83;60.56
52855;BME280;38719;51.418;7.286;2023-03-20T08:29:51;100185.22;;;10.74;60.78
52855;BME280;38719;51.418;7.286;2023-03-20T08:32:18;100181.56;;;10.32;61.47
52855;BME280;38719;51.418;7.286;2023-03-20T08:34:46;100189.06;;;10.67;60.81
52855;BME280;38719;51.418;7.286;2023-03-20T08:37:13;100189.31;;;11.03;59.43
52855;BME280;38719;51.418;7.286;2023-03-20T08:39:41;100190.13;;;11.05;59.36
52855;BME280;38719;51.418;7.286;2023-03-20T08:42:08;100191.75;;;10.87;59.47
52855;BME280;38719;51.418;7.286;2023-03-20T08:44:37;100196.25;;;10.64;60.59
52855;BME280;38719;51.418;7.286;2023-03-20T08:47:05;100193.03;;;10.99;59.90
52855;BME280;38719;51.418;7.286;2023-03-20T08:49:33;100187.66;;;11.01;59.23
52855;BME280;38719;51.418;7.286;2023-03-20T08:52:00;100189.50;;;10.99;59.65
52855;BME280;38719;51.418;7.286;2023-03-20T08:54:28;100201.63;;;11.06;58.18
52855;BME280;38719;51.418;7.286;2023-03-20T08:56:56;100190.59;;;10.72;58.40
52855;BME280;38719;51.418;7.286;2023-03-20T08:59:24;100184.81;;;10.62;59.12
52855;BME280;38719;51.418;7.286;2023-03-20T09:01:52;100189.31;;;11.03;57.85
52855;BME280;38719;51.418;7.286;2023-03-20T09:04:20;100185.56;;;11.28;58.09
52855;BME280;38719;51.418;7.286;2023-03-20T09:06:48;100184.44;;;11.34;57.25
52855;BME280;38719;51.418;7.286;2023-03-20T09:09:16;100191.81;;;11.48;57.24
52855;BME280;38719;51.418;7.286;2023-03-20T09:11:46;100186.09;;;11.16;57.31
52855;BME280;38719;51.418;7.286;2023-03-20T09:14:14;100179.69;;;11.20;57.95
52855;BME280;38719;51.418;7.286;2023-03-20T09:16:41;100183.72;;;11.09;57.30
52855;BME280;38719;51.418;7.286;2023-03-20T09:19:10;100182.81;;;11.29;55.96
52855;BME280;38719;51.418;7.286;2023-03-20T09:21:38;100193.72;;;11.04;57.01
52855;BME280;38719;51.418;7.286;2023-03-20T09:24:06;100183.47;;;10.73;57.11
52855;BME280;38719;51.418;7.286;2023-03-20T09:26:33;100193.41;;;10.69;57.64
52855;BME280;38719;51.418;7.286;2023-03-20T09:29:01;100188.16;;;10.88;56.52
52855;BME280;38719;51.418;7.286;2023-03-20T09:31:28;100185.72;;;11.04;56.34
52855;BME280;38719;51.418;7.286;2023-03-20T09:33:56;100193.16;;;10.75;56.42
52855;BME280;38719;51.418;7.286;2023-03-20T09:36:25;100189.03;;;10.89;55.96
52855;BME280;38719;51.418;7.286;2023-03-20T09:38:52;100185.28;;;10.72;56.03
52855;BME280;38719;51.418;7.286;2023-03-20T09:41:21;100195.97;;;10.50;57.45
52855;BME280;38719;51.418;7.286;2023-03-20T09:44:01;100186.31;;;10.90;56.21
52855;BME280;38719;51.418;7.286;2023-03-20T09:46:44;100200.19;;;10.76;56.41
52855;BME280;38719;51.418;7.286;2023-03-20T09:49:22;100189.72;;;10.94;55.78
52855;BME280;38719;51.418;7.286;2023-03-20T09:51:58;100190.53;;;10.74;55.88
52855;BME280;38719;51.418;7.286;2023-03-20T09:54:28;100191.06;;;10.61;57.39
52855;BME280;38719;51.418;7.286;2023-03-20T09:57:21;100188.13;;;11.10;55.95
52855;BME280;38719;51.418;7.286;2023-03-20T09:59:54;100188.97;;;11.11;56.46
52855;BME280;38719;51.418;7.286;2023-03-20T10:02:33;100196.97;;;11.32;55.82
52855;BME280;38719;51.418;7.286;2023-03-20T10:05:03;100193.72;;;11.25;54.44
52855;BME280;38719;51.418;7.286;2023-03-20T10:07:39;100188.22;;;11.28;53.88
52855;BME280;38719;51.418;7.286;2023-03-20T10:10:08;100186.03;;;11.17;54.74
52855;BME280;38719;51.418;7.286;2023-03-20T10:12:46;100193.59;;;10.85;54.51
52855;BME280;38719;51.418;7.286;2023-03-20T10:15:20;100186.69;;;10.81;55.86
52855;BME280;38719;51.418;7.286;2023-03-20T10:18:01;100189.75;;;10.72;55.55
52855;BME280;38719;51.418;7.286;2023-03-20T10:20:33;100185.31;;;10.50;55.80
52855;BME280;38719;51.418;7.286;2023-03-20T10:23:05;100193.94;;;10.77;54.68
52855;BME280;38719;51.418;7.286;2023-03-20T10:25:36;100190.03;;;10.86;55.78
52855;BME280;38719;51.418;7.286;2023-03-20T10:28:11;100189.50;;;10.99;54.15
52855;BME280;38719;51.418;7.286;2023-03-20T10:30:56;100191.75;;;10.87;54.78
52855;BME280;38719;51.418;7.286;2023-03-20T10:33:41;100181.50;;;10.99;55.25
52855;BME280;38719;51.418;7.286;2023-03-20T10:36:26;100179.00;;;10.95;54.83
52855;BME280;38719;51.418;7.286;2023-03-20T10:39:03;100177.25;;;11.15;54.50
52855;BME280;38719;51.418;7.286;2023-03-20T10:41:36;100167.91;;;11.05;54.58
52855;BME280;38719;51.418;7.286;2023-03-20T10:44:05;100173.03;;;11.30;54.27
52855;BME280;38719;51.418;7.286;2023-03-20T10:46:40;100173.50;;;11.19;53.48
52855;BME280;38719;51.418;7.286;2023-03-20T10:49:14;100159.66;;;11.51;53.41
52855;BME280;38719;51.418;7.286;2023-03-20T10:51:47;100160.38;;;11.54;52.97
52855;BME280;38719;51.418;7.286;2023-03-20T10:54:24;100169.00;;;11.21;54.04
52855;BME280;38719;51.418;7.286;2023-03-20T10:56:54;100174.16;;;11.24;53.60
52855;BME280;38719;51.418;7.286;2023-03-20T10:59:28;100172.78;;;10.95;54.86
52855;BME280;38719;51.418;7.286;2023-03-20T11:02:13;100168.00;;;11.43;53.68
52855;BME280;38719;51.418;7.286;2023-03-20T11:04:50;100168.53;;;11.51;52.69
52855;BME280;38719;51.418;7.286;2023-03-20T11:07:22;100167.63;;;11.52;51.70
52855;BME280;38719;51.418;7.286;2023-03-20T11:13:03;100159.47;;;11.55;51.91
52855;BME280;38719;51.418;7.286;2023-03-20T11:15:51;100142.06;;;11.47;52.22
52855;BME280;38719;51.418;7.286;2023-03-20T11:18:23;100147.41;;;11.66;52.34
52855;BME280;38719;51.418;7.286;2023-03-20T11:20:53;100154.88;;;11.38;51.76
52855;BME280;38719;51.418;7.286;2023-03-20T11:23:24;100153.03;;;11.59;50.63
52855;BME280;38719;51.418;7.286;2023-03-20T11:25:56;100142.75;;;11.71;50.68
52855;BME280;38719;51.418;7.286;2023-03-20T11:28:34;100140.03;;;12.11;49.75
52855;BME280;38719;51.418;7.286;2023-03-20T11:31:04;100138.72;;;12.00;50.21
52855;BME280;38719;51.418;7.286;2023-03-20T11:33:36;100130.13;;;12.13;50.47
52855;BME280;38719;51.418;7.286;2023-03-20T11:36:10;100131.13;;;12.10;50.41
52855;BME280;38719;51.418;7.286;2023-03-20T11:38:43;100124.00;;;12.11;49.20
52855;BME280;38719;51.418;7.286;2023-03-20T11:41:22;100126.34;;;11.99;48.42
52855;BME280;38719;51.418;7.286;2023-03-20T11:43:52;100128.25;;;12.15;50.32
52855;BME280;38719;51.418;7.286;2023-03-20T11:46:21;100132.28;;;12.41;49.38
52855;BME280;38719;51.418;7.286;2023-03-20T11:49:04;100113.94;;;12.52;49.81
52855;BME280;38719;51.418;7.286;2023-03-20T11:51:34;100120.69;;;12.42;49.32
52855;BME280;38719;51.418;7.286;2023-03-20T11:54:04;100118.63;;;12.47;48.32
52855;BME280;38719;51.418;7.286;2023-03-20T11:56:33;100114.56;;;12.57;47.57
52855;BME280;38719;51.418;7.286;2023-03-20T11:59:12;100133.00;;;12.27;47.40
52855;BME280;38719;51.418;7.286;2023-03-20T12:01:43;100121.63;;;11.66;49.93
52855;BME280;38719;51.418;7.286;2023-03-20T12:04:14;100133.88;;;11.89;48.01
52855;BME280;38719;51.418;7.286;2023-03-20T12:06:50;100123.34;;;11.67;49.48
52855;BME280;38719;51.418;7.286;2023-03-20T12:09:27;100133.03;;;11.70;49.92
52855;BME280;38719;51.418;7.286;2023-03-20T12:11:58;100123.50;;;11.64;50.71
52855;BME280;38719;51.418;7.286;2023-03-20T12:14:36;100123.41;;;11.66;50.86
52855;BME280;38719;51.418;7.286;2023-03-20T12:17:19;100137.31;;;11.91;50.55
52855;BME280;38719;51.418;7.286;2023-03-20T12:19:51;100125.97;;;12.07;50.83
52855;BME280;38719;51.418;7.286;2023-03-20T12:22:23;100134.50;;;11.75;49.61
52855;BME280;38719;51.418;7.286;2023-03-20T12:24:57;100135.47;;;11.55;51.42
52855;BME280;38719;51.418;7.286;2023-03-20T12:27:28;100128.97;;;11.80;51.37
52855;BME280;38719;51.418;7.286;2023-03-20T12:30:03;100125.88;;;11.70;50.80
52855;BME280;38719;51.418;7.286;2023-03-20T12:32:37;100128.00;;;11.43;52.05
52855;BME280;38719;51.418;7.286;2023-03-20T12:35:11;100130.63;;;11.83;51.59
52855;BME280;38719;51.418;7.286;2023-03-20T12:37:42;100117.31;;;12.02;49.82
52855;BME280;38719;51.418;7.286;2023-03-20T12:40:14;100124.13;;;11.69;51.31
52855;BME280;38719;51.418;7.286;2023-03-20T12:42:51;100125.78;;;11.72;51.93
52855;BME280;38719;51.418;7.286;2023-03-20T12:45:25;100123.34;;;11.86;51.66
52855;BME280;38719;51.418;7.286;2023-03-20T12:50:50;100119.03;;;11.84;52.23
52855;BME280;38719;51.418;7.286;2023-03-20T12:53:29;100110.66;;;12.11;51.11
52855;BME280;38719;51.418;7.286;2023-03-20T12:56:10;100120.69;;;11.86;52.73
52855;BME280;38719;51.418;7.286;2023-03-20T12:58:44;100118.66;;;11.72;52.52
52855;BME280;38719;51.418;7.286;2023-03-20T13:01:19;100116.88;;;11.14;54.02
52855;BME280;38719;51.418;7.286;2023-03-20T13:03:57;100116.34;;;11.06;54.70
52855;BME280;38719;51.418;7.286;2023-03-20T13:06:36;100105.78;;;11.23;54.31
52855;BME280;38719;51.418;7.286;2023-03-20T13:09:22;100108.06;;;11.33;54.05
52855;BME280;38719;51.418;7.286;2023-03-20T13:12:00;100114.13;;;11.36;53.96
52855;BME280;38719;51.418;7.286;2023-03-20T13:14:34;100113.09;;;11.39;54.19
52855;BME280;38719;51.418;7.286;2023-03-20T13:17:13;100107.91;;;11.36;55.87
52855;BME280;38719;51.418;7.286;2023-03-20T13:19:48;100107.34;;;11.48;54.84
52855;BME280;38719;51.418;7.286;2023-03-20T13:22:24;100116.13;;;11.50;54.69
52855;BME280;38719;51.418;7.286;2023-03-20T13:25:01;100116.13;;;11.50;54.63
52855;BME280;38719;51.418;7.286;2023-03-20T13:27:36;100112.50;;;11.32;56.14